sensor_id;sensor_type;location;lat;lon;timestamp;temperature;humidity
2893;DHT22;1456;51.840;12.184;2023-08-20T00:02:13;25.30;99.90
2893;DHT22;1456;51.840;12.184;2023-08-20T00:04:40;25.20;99.90
2893;DHT22;1456;51.840;12.184;2023-08-20T00:07:07;25.20;99.90
2893;DHT22;1456;51.840;12.184;2023-08-20T00:09:33;25.10;99.90
2893;DHT22;1456;51.840;12.184;2023-08-20T00:11:59;25.10;99.90
2893;DHT22;1456;51.840;12.184;2023-08-20T00:17:11;25.10;99.90
2893;DHT22;1456;51.840;12.184;2023-08-20T00:19:37;25.00;99.90
2893;DHT22;1456;51.840;12.184;2023-08-20T00:22:03;24.90;99.90
2893;DHT22;1456;51.840;12.184;2023-08-20T00:24:29;24.90;99.90
2893;DHT22;1456;51.840;12.184;2023-08-20T00:26:54;24.80;99.90
2893;DHT22;1456;51.840;12.184;2023-08-20T00:29:20;24.70;99.90
2893;DHT22;1456;51.840;12.184;2023-08-20T00:31:45;24.70;99.90
2893;DHT22;1456;51.840;12.184;2023-08-20T00:34:12;24.70;99.90
2893;DHT22;1456;51.840;12.184;2023-08-20T00:36:37;24.60;99.90
2893;DHT22;1456;51.840;12.184;2023-08-20T00:39:03;24.60;99.90
2893;DHT22;1456;51.840;12.184;2023-08-20T00:41:30;24.50;99.90
2893;DHT22;1456;51.840;12.184;2023-08-20T00:43:56;24.40;99.90
2893;DHT22;1456;51.840;12.184;2023-08-20T00:46:22;24.40;99.90
2893;DHT22;1456;51.840;12.184;2023-08-20T00:48:48;24.40;99.90
2893;DHT22;1456;51.840;12.184;2023-08-20T00:51:15;24.30;99.90
2893;DHT22;1456;51.840;12.184;2023-08-20T00:53:42;24.30;99.90
2893;DHT22;1456;51.840;12.184;2023-08-20T00:56:09;24.30;99.90
2893;DHT22;1456;51.840;12.184;2023-08-20T00:58:36;24.30;99.90
2893;DHT22;1456;51.840;12.184;2023-08-20T01:01:01;24.20;99.90
2893;DHT22;1456;51.840;12.184;2023-08-20T01:03:27;24.20;99.90
2893;DHT22;1456;51.840;12.184;2023-08-20T01:05:56;24.10;99.90
2893;DHT22;1456;51.840;12.184;2023-08-20T01:08:29;24.10;99.90
2893;DHT22;1456;51.840;12.184;2023-08-20T01:10:57;24.00;99.90
2893;DHT22;1456;51.840;12.184;2023-08-20T01:13:24;23.90;99.90
2893;DHT22;1456;51.840;12.184;2023-08-20T01:15:50;23.90;99.90
2893;DHT22;1456;51.840;12.184;2023-08-20T01:18:15;23.90;99.90
2893;DHT22;1456;51.840;12.184;2023-08-20T01:20:45;23.90;99.90
2893;DHT22;1456;51.840;12.184;2023-08-20T01:23:19;23.80;99.90
2893;DHT22;1456;51.840;12.184;2023-08-20T01:28:34;23.80;99.90
2893;DHT22;1456;51.840;12.184;2023-08-20T01:31:01;23.80;99.90
2893;DHT22;1456;51.840;12.184;2023-08-20T01:33:28;23.70;99.90
2893;DHT22;1456;51.840;12.184;2023-08-20T01:35:55;23.70;99.90
2893;DHT22;1456;51.840;12.184;2023-08-20T01:38:21;23.70;99.90
2893;DHT22;1456;51.840;12.184;2023-08-20T01:40:47;23.70;99.90
2893;DHT22;1456;51.840;12.184;2023-08-20T01:43:14;23.60;99.90
2893;DHT22;1456;51.840;12.184;2023-08-20T01:45:40;23.60;99.90
2893;DHT22;1456;51.840;12.184;2023-08-20T01:48:06;23.50;99.90
2893;DHT22;1456;51.840;12.184;2023-08-20T01:50:33;23.50;99.90
2893;DHT22;1456;51.840;12.184;2023-08-20T01:52:58;23.40;99.90
2893;DHT22;1456;51.840;12.184;2023-08-20T01:55:24;23.40;99.90
2893;DHT22;1456;51.840;12.184;2023-08-20T01:57:49;23.40;99.90
2893;DHT22;1456;51.840;12.184;2023-08-20T02:00:15;23.40;99.90
2893;DHT22;1456;51.840;12.184;2023-08-20T02:02:41;23.40;99.90
2893;DHT22;1456;51.840;12.184;2023-08-20T02:05:07;23.40;99.90
2893;DHT22;1456;51.840;12.184;2023-08-20T02:07:34;23.40;99.90
2893;DHT22;1456;51.840;12.184;2023-08-20T02:10:01;23.40;99.90
2893;DHT22;1456;51.840;12.184;2023-08-20T02:12:27;23.40;99.90
2893;DHT22;1456;51.840;12.184;2023-08-20T02:14:53;23.40;99.90
2893;DHT22;1456;51.840;12.184;2023-08-20T02:17:20;23.30;99.90
2893;DHT22;1456;51.840;12.184;2023-08-20T02:19:45;23.30;99.90
2893;DHT22;1456;51.840;12.184;2023-08-20T02:22:11;23.30;99.90
2893;DHT22;1456;51.840;12.184;2023-08-20T02:24:36;23.20;99.90
2893;DHT22;1456;51.840;12.184;2023-08-20T02:27:02;23.00;99.90
2893;DHT22;1456;51.840;12.184;2023-08-20T02:29:28;23.10;99.90
2893;DHT22;1456;51.840;12.184;2023-08-20T02:31:53;23.00;99.90
2893;DHT22;1456;51.840;12.184;2023-08-20T02:34:20;23.00;99.90
2893;DHT22;1456;51.840;12.184;2023-08-20T02:36:47;23.00;99.90
2893;DHT22;1456;51.840;12.184;2023-08-20T02:39:13;22.90;99.90
2893;DHT22;1456;51.840;12.184;2023-08-20T02:41:39;22.90;99.90
2893;DHT22;1456;51.840;12.184;2023-08-20T02:44:04;22.80;99.90
2893;DHT22;1456;51.840;12.184;2023-08-20T02:46:31;22.80;99.90
2893;DHT22;1456;51.840;12.184;2023-08-20T02:48:57;22.70;99.90
2893;DHT22;1456;51.840;12.184;2023-08-20T02:51:22;22.70;99.90
2893;DHT22;1456;51.840;12.184;2023-08-20T02:53:50;22.60;99.90
2893;DHT22;1456;51.840;12.184;2023-08-20T02:56:17;22.50;99.90
2893;DHT22;1456;51.840;12.184;2023-08-20T02:58:42;22.50;99.90
2893;DHT22;1456;51.840;12.184;2023-08-20T03:01:17;22.50;99.90
2893;DHT22;1456;51.840;12.184;2023-08-20T03:03:42;22.60;99.90
2893;DHT22;1456;51.840;12.184;2023-08-20T03:06:09;22.60;99.90
2893;DHT22;1456;51.840;12.184;2023-08-20T03:08:34;22.70;99.90
2893;DHT22;1456;51.840;12.184;2023-08-20T03:11:04;22.70;99.90
2893;DHT22;1456;51.840;12.184;2023-08-20T03:13:32;22.80;99.90
2893;DHT22;1456;51.840;12.184;2023-08-20T03:16:01;22.80;99.90
2893;DHT22;1456;51.840;12.184;2023-08-20T03:18:29;22.90;99.90
2893;DHT22;1456;51.840;12.184;2023-08-20T03:20:55;22.90;99.90
2893;DHT22;1456;51.840;12.184;2023-08-20T03:23:23;22.90;99.90
2893;DHT22;1456;51.840;12.184;2023-08-20T03:25:49;22.90;99.90
2893;DHT22;1456;51.840;12.184;2023-08-20T03:28:15;23.00;99.90
2893;DHT22;1456;51.840;12.184;2023-08-20T03:30:42;23.10;99.90
2893;DHT22;1456;51.840;12.184;2023-08-20T03:33:07;23.10;99.90
2893;DHT22;1456;51.840;12.184;2023-08-20T03:35:33;23.10;99.90
2893;DHT22;1456;51.840;12.184;2023-08-20T03:37:59;23.00;99.90
2893;DHT22;1456;51.840;12.184;2023-08-20T03:40:27;22.90;99.90
2893;DHT22;1456;51.840;12.184;2023-08-20T03:42:54;22.80;99.90
2893;DHT22;1456;51.840;12.184;2023-08-20T03:45:20;22.70;99.90
2893;DHT22;1456;51.840;12.184;2023-08-20T03:47:45;22.70;99.90
2893;DHT22;1456;51.840;12.184;2023-08-20T03:50:12;22.60;99.90
2893;DHT22;1456;51.840;12.184;2023-08-20T03:52:38;22.60;99.90
2893;DHT22;1456;51.840;12.184;2023-08-20T03:55:05;22.50;99.90
2893;DHT22;1456;51.840;12.184;2023-08-20T03:57:30;22.50;99.90
2893;DHT22;1456;51.840;12.184;2023-08-20T03:59:56;22.50;99.90
2893;DHT22;1456;51.840;12.184;2023-08-20T04:02:23;22.50;99.90
2893;DHT22;1456;51.840;12.184;2023-08-20T04:04:49;22.50;99.90
2893;DHT22;1456;51.840;12.184;2023-08-20T04:07:14;22.50;99.90
2893;DHT22;1456;51.840;12.184;2023-08-20T04:09:41;22.50;99.90
2893;DHT22;1456;51.840;12.184;2023-08-20T04:12:08;22.50;99.90
2893;DHT22;1456;51.840;12.184;2023-08-20T04:14:35;22.50;99.90
2893;DHT22;1456;51.840;12.184;2023-08-20T04:17:02;22.50;99.90
2893;DHT22;1456;51.840;12.184;2023-08-20T04:19:29;22.50;99.90
2893;DHT22;1456;51.840;12.184;2023-08-20T04:21:56;22.50;99.90
2893;DHT22;1456;51.840;12.184;2023-08-20T04:24:22;22.50;99.90
2893;DHT22;1456;51.840;12.184;2023-08-20T04:26:47;22.50;99.90
2893;DHT22;1456;51.840;12.184;2023-08-20T04:29:13;22.60;99.90
2893;DHT22;1456;51.840;12.184;2023-08-20T04:31:39;22.60;99.90
2893;DHT22;1456;51.840;12.184;2023-08-20T04:34:04;22.70;99.90
2893;DHT22;1456;51.840;12.184;2023-08-20T04:36:31;22.70;99.90
2893;DHT22;1456;51.840;12.184;2023-08-20T04:38:58;22.70;99.90
2893;DHT22;1456;51.840;12.184;2023-08-20T04:41:25;22.70;99.90
2893;DHT22;1456;51.840;12.184;2023-08-20T04:43:51;22.60;99.90
2893;DHT22;1456;51.840;12.184;2023-08-20T04:46:18;22.60;99.90
2893;DHT22;1456;51.840;12.184;2023-08-20T04:48:44;22.60;99.90
2893;DHT22;1456;51.840;12.184;2023-08-20T04:51:09;22.60;99.90
2893;DHT22;1456;51.840;12.184;2023-08-20T04:53:38;22.60;99.90
2893;DHT22;1456;51.840;12.184;2023-08-20T04:56:04;22.60;99.90
2893;DHT22;1456;51.840;12.184;2023-08-20T04:58:29;22.60;99.90
2893;DHT22;1456;51.840;12.184;2023-08-20T05:00:56;22.60;99.90
2893;DHT22;1456;51.840;12.184;2023-08-20T05:03:24;22.60;99.90
2893;DHT22;1456;51.840;12.184;2023-08-20T05:05:50;22.60;99.90
2893;DHT22;1456;51.840;12.184;2023-08-20T05:08:16;22.60;99.90
2893;DHT22;1456;51.840;12.184;2023-08-20T05:10:44;22.70;99.90
2893;DHT22;1456;51.840;12.184;2023-08-20T05:13:10;22.80;99.90
2893;DHT22;1456;51.840;12.184;2023-08-20T05:15:36;22.70;99.90
2893;DHT22;1456;51.840;12.184;2023-08-20T05:18:02;22.70;99.90
2893;DHT22;1456;51.840;12.184;2023-08-20T05:20:28;22.70;99.90
2893;DHT22;1456;51.840;12.184;2023-08-20T05:22:55;22.70;99.90
2893;DHT22;1456;51.840;12.184;2023-08-20T05:25:21;22.80;99.90
2893;DHT22;1456;51.840;12.184;2023-08-20T05:27:48;22.80;99.90
2893;DHT22;1456;51.840;12.184;2023-08-20T05:30:14;22.80;99.90
2893;DHT22;1456;51.840;12.184;2023-08-20T05:32:40;22.90;99.90
2893;DHT22;1456;51.840;12.184;2023-08-20T05:35:07;23.10;99.90
2893;DHT22;1456;51.840;12.184;2023-08-20T05:37:33;23.00;99.90
2893;DHT22;1456;51.840;12.184;2023-08-20T05:39:58;23.20;99.90
2893;DHT22;1456;51.840;12.184;2023-08-20T05:42:24;23.20;99.90
2893;DHT22;1456;51.840;12.184;2023-08-20T05:44:51;23.30;99.90
2893;DHT22;1456;51.840;12.184;2023-08-20T05:47:17;23.50;99.90
2893;DHT22;1456;51.840;12.184;2023-08-20T05:49:43;23.50;99.90
2893;DHT22;1456;51.840;12.184;2023-08-20T05:52:09;23.70;99.90
2893;DHT22;1456;51.840;12.184;2023-08-20T05:54:35;23.80;99.90
2893;DHT22;1456;51.840;12.184;2023-08-20T05:57:02;23.80;99.90
2893;DHT22;1456;51.840;12.184;2023-08-20T05:59:28;23.80;99.90
2893;DHT22;1456;51.840;12.184;2023-08-20T06:01:56;23.80;99.90
2893;DHT22;1456;51.840;12.184;2023-08-20T06:04:23;23.80;99.90
2893;DHT22;1456;51.840;12.184;2023-08-20T06:06:49;23.90;99.90
2893;DHT22;1456;51.840;12.184;2023-08-20T06:09:15;23.90;99.90
2893;DHT22;1456;51.840;12.184;2023-08-20T06:11:42;24.00;99.90
2893;DHT22;1456;51.840;12.184;2023-08-20T06:14:07;24.00;99.90
2893;DHT22;1456;51.840;12.184;2023-08-20T06:16:35;23.90;99.90
2893;DHT22;1456;51.840;12.184;2023-08-20T06:19:01;24.00;99.90
2893;DHT22;1456;51.840;12.184;2023-08-20T06:21:30;24.00;99.90
2893;DHT22;1456;51.840;12.184;2023-08-20T06:23:56;24.10;99.90
2893;DHT22;1456;51.840;12.184;2023-08-20T06:26:24;24.30;99.90
2893;DHT22;1456;51.840;12.184;2023-08-20T06:28:50;24.50;99.90
2893;DHT22;1456;51.840;12.184;2023-08-20T06:31:19;24.80;99.90
2893;DHT22;1456;51.840;12.184;2023-08-20T06:33:45;25.10;99.90
2893;DHT22;1456;51.840;12.184;2023-08-20T06:36:13;25.30;99.90
2893;DHT22;1456;51.840;12.184;2023-08-20T06:38:42;25.30;99.90
2893;DHT22;1456;51.840;12.184;2023-08-20T06:41:08;25.30;99.90
2893;DHT22;1456;51.840;12.184;2023-08-20T06:43:35;25.30;99.90
2893;DHT22;1456;51.840;12.184;2023-08-20T06:46:00;25.30;99.90
2893;DHT22;1456;51.840;12.184;2023-08-20T06:48:28;25.40;99.90
2893;DHT22;1456;51.840;12.184;2023-08-20T06:50:54;25.50;99.90
2893;DHT22;1456;51.840;12.184;2023-08-20T06:53:19;25.50;99.90
2893;DHT22;1456;51.840;12.184;2023-08-20T06:55:47;25.30;99.90
2893;DHT22;1456;51.840;12.184;2023-08-20T06:58:14;25.40;99.90
2893;DHT22;1456;51.840;12.184;2023-08-20T07:00:39;25.50;99.90
2893;DHT22;1456;51.840;12.184;2023-08-20T07:03:05;25.50;99.90
2893;DHT22;1456;51.840;12.184;2023-08-20T07:05:31;25.60;99.90
2893;DHT22;1456;51.840;12.184;2023-08-20T07:07:56;25.80;99.90
2893;DHT22;1456;51.840;12.184;2023-08-20T07:10:22;26.00;99.90
2893;DHT22;1456;51.840;12.184;2023-08-20T07:12:48;26.10;99.90
2893;DHT22;1456;51.840;12.184;2023-08-20T07:15:15;26.50;99.90
2893;DHT22;1456;51.840;12.184;2023-08-20T07:17:43;26.90;99.90
2893;DHT22;1456;51.840;12.184;2023-08-20T07:20:10;27.10;99.90
2893;DHT22;1456;51.840;12.184;2023-08-20T07:22:42;27.30;99.90
2893;DHT22;1456;51.840;12.184;2023-08-20T07:25:08;27.10;99.90
2893;DHT22;1456;51.840;12.184;2023-08-20T07:27:34;26.70;99.90
2893;DHT22;1456;51.840;12.184;2023-08-20T07:30:01;26.60;99.90
2893;DHT22;1456;51.840;12.184;2023-08-20T07:32:26;26.40;99.90
2893;DHT22;1456;51.840;12.184;2023-08-20T07:34:55;26.20;99.90
2893;DHT22;1456;51.840;12.184;2023-08-20T07:37:26;26.20;99.90
2893;DHT22;1456;51.840;12.184;2023-08-20T07:39:54;26.20;99.90
2893;DHT22;1456;51.840;12.184;2023-08-20T07:42:20;26.20;99.90
2893;DHT22;1456;51.840;12.184;2023-08-20T07:44:46;26.30;99.90
2893;DHT22;1456;51.840;12.184;2023-08-20T07:47:13;26.30;99.90
2893;DHT22;1456;51.840;12.184;2023-08-20T07:49:39;26.40;99.90
2893;DHT22;1456;51.840;12.184;2023-08-20T07:52:07;26.60;99.90
2893;DHT22;1456;51.840;12.184;2023-08-20T07:54:32;26.60;99.90
2893;DHT22;1456;51.840;12.184;2023-08-20T07:56:58;26.40;99.90
2893;DHT22;1456;51.840;12.184;2023-08-20T07:59:24;26.50;99.90
2893;DHT22;1456;51.840;12.184;2023-08-20T08:01:49;26.50;99.90
2893;DHT22;1456;51.840;12.184;2023-08-20T08:04:16;26.50;99.90
2893;DHT22;1456;51.840;12.184;2023-08-20T08:06:42;26.60;99.90
2893;DHT22;1456;51.840;12.184;2023-08-20T08:09:31;26.70;99.90
2893;DHT22;1456;51.840;12.184;2023-08-20T08:11:59;26.80;99.90
2893;DHT22;1456;51.840;12.184;2023-08-20T08:14:25;27.10;99.90
2893;DHT22;1456;51.840;12.184;2023-08-20T08:16:52;27.20;99.90
2893;DHT22;1456;51.840;12.184;2023-08-20T08:19:19;27.30;99.90
2893;DHT22;1456;51.840;12.184;2023-08-20T08:21:47;27.50;99.90
2893;DHT22;1456;51.840;12.184;2023-08-20T08:24:14;27.60;99.90
2893;DHT22;1456;51.840;12.184;2023-08-20T08:26:40;27.80;99.90
2893;DHT22;1456;51.840;12.184;2023-08-20T08:29:07;28.00;99.90
2893;DHT22;1456;51.840;12.184;2023-08-20T08:31:33;28.10;99.90
2893;DHT22;1456;51.840;12.184;2023-08-20T08:34:01;28.10;99.90
2893;DHT22;1456;51.840;12.184;2023-08-20T08:36:27;28.20;99.90
2893;DHT22;1456;51.840;12.184;2023-08-20T08:38:53;28.30;99.90
2893;DHT22;1456;51.840;12.184;2023-08-20T08:41:22;28.50;99.90
2893;DHT22;1456;51.840;12.184;2023-08-20T08:43:51;28.50;99.90
2893;DHT22;1456;51.840;12.184;2023-08-20T08:46:16;28.60;99.90
2893;DHT22;1456;51.840;12.184;2023-08-20T08:48:46;28.60;99.90
2893;DHT22;1456;51.840;12.184;2023-08-20T08:51:14;28.60;99.90
2893;DHT22;1456;51.840;12.184;2023-08-20T08:53:43;28.70;99.90
2893;DHT22;1456;51.840;12.184;2023-08-20T08:56:11;28.80;99.90
2893;DHT22;1456;51.840;12.184;2023-08-20T08:58:37;29.00;99.90
2893;DHT22;1456;51.840;12.184;2023-08-20T09:01:08;29.10;99.90
2893;DHT22;1456;51.840;12.184;2023-08-20T09:03:35;29.20;99.90
2893;DHT22;1456;51.840;12.184;2023-08-20T09:06:02;29.50;99.80
2893;DHT22;1456;51.840;12.184;2023-08-20T09:08:37;29.40;99.90
2893;DHT22;1456;51.840;12.184;2023-08-20T09:11:02;29.60;99.90
2893;DHT22;1456;51.840;12.184;2023-08-20T09:13:39;29.70;99.90
2893;DHT22;1456;51.840;12.184;2023-08-20T09:16:11;30.00;99.90
2893;DHT22;1456;51.840;12.184;2023-08-20T09:18:46;30.20;99.90
2893;DHT22;1456;51.840;12.184;2023-08-20T09:21:14;30.30;99.90
2893;DHT22;1456;51.840;12.184;2023-08-20T09:23:40;30.50;99.90
2893;DHT22;1456;51.840;12.184;2023-08-20T09:26:10;30.60;99.70
2893;DHT22;1456;51.840;12.184;2023-08-20T09:28:45;30.60;99.60
2893;DHT22;1456;51.840;12.184;2023-08-20T09:31:15;30.60;99.00
2893;DHT22;1456;51.840;12.184;2023-08-20T09:33:54;30.60;99.90
2893;DHT22;1456;51.840;12.184;2023-08-20T09:36:33;30.80;99.90
2893;DHT22;1456;51.840;12.184;2023-08-20T09:38:59;30.70;99.60
2893;DHT22;1456;51.840;12.184;2023-08-20T09:41:25;30.90;97.60
2893;DHT22;1456;51.840;12.184;2023-08-20T09:44:02;31.10;97.30
2893;DHT22;1456;51.840;12.184;2023-08-20T09:46:31;31.20;97.70
2893;DHT22;1456;51.840;12.184;2023-08-20T09:49:01;31.30;98.30
2893;DHT22;1456;51.840;12.184;2023-08-20T09:51:28;31.50;97.10
2893;DHT22;1456;51.840;12.184;2023-08-20T09:56:40;31.40;97.60
2893;DHT22;1456;51.840;12.184;2023-08-20T09:59:10;31.50;95.90
2893;DHT22;1456;51.840;12.184;2023-08-20T10:01:37;31.70;96.90
2893;DHT22;1456;51.840;12.184;2023-08-20T10:04:03;32.10;95.90
2893;DHT22;1456;51.840;12.184;2023-08-20T10:06:30;32.40;95.30
2893;DHT22;1456;51.840;12.184;2023-08-20T10:08:58;32.80;94.40
2893;DHT22;1456;51.840;12.184;2023-08-20T10:11:24;32.90;93.80
2893;DHT22;1456;51.840;12.184;2023-08-20T10:13:50;33.10;94.00
2893;DHT22;1456;51.840;12.184;2023-08-20T10:16:19;33.20;93.30
2893;DHT22;1456;51.840;12.184;2023-08-20T10:18:47;33.40;92.20
2893;DHT22;1456;51.840;12.184;2023-08-20T10:21:13;33.80;93.20
2893;DHT22;1456;51.840;12.184;2023-08-20T10:23:48;34.20;92.60
2893;DHT22;1456;51.840;12.184;2023-08-20T10:26:14;34.50;92.00
2893;DHT22;1456;51.840;12.184;2023-08-20T10:28:43;35.10;91.20
2893;DHT22;1456;51.840;12.184;2023-08-20T10:31:12;35.20;88.60
2893;DHT22;1456;51.840;12.184;2023-08-20T10:36:23;35.30;88.20
2893;DHT22;1456;51.840;12.184;2023-08-20T10:38:56;35.10;84.40
2893;DHT22;1456;51.840;12.184;2023-08-20T10:41:27;35.20;85.90
2893;DHT22;1456;51.840;12.184;2023-08-20T10:43:53;35.30;86.50
2893;DHT22;1456;51.840;12.184;2023-08-20T10:46:23;35.70;83.60
2893;DHT22;1456;51.840;12.184;2023-08-20T10:49:03;35.70;88.20
2893;DHT22;1456;51.840;12.184;2023-08-20T10:51:33;35.50;84.30
2893;DHT22;1456;51.840;12.184;2023-08-20T10:56:48;36.10;86.50
2893;DHT22;1456;51.840;12.184;2023-08-20T10:59:21;36.40;80.00
2893;DHT22;1456;51.840;12.184;2023-08-20T11:01:48;36.80;79.50
2893;DHT22;1456;51.840;12.184;2023-08-20T11:04:22;37.00;78.40
2893;DHT22;1456;51.840;12.184;2023-08-20T11:06:55;37.20;79.00
2893;DHT22;1456;51.840;12.184;2023-08-20T11:09:29;37.00;77.90
2893;DHT22;1456;51.840;12.184;2023-08-20T11:11:56;36.70;79.50
2893;DHT22;1456;51.840;12.184;2023-08-20T11:14:22;36.50;77.80
2893;DHT22;1456;51.840;12.184;2023-08-20T11:16:49;36.40;78.70
2893;DHT22;1456;51.840;12.184;2023-08-20T11:19:22;36.50;77.00
2893;DHT22;1456;51.840;12.184;2023-08-20T11:21:49;36.10;76.00
2893;DHT22;1456;51.840;12.184;2023-08-20T11:24:14;35.50;77.50
2893;DHT22;1456;51.840;12.184;2023-08-20T11:26:43;35.00;79.30
2893;DHT22;1456;51.840;12.184;2023-08-20T11:29:13;34.70;80.80
2893;DHT22;1456;51.840;12.184;2023-08-20T11:31:40;34.60;82.10
2893;DHT22;1456;51.840;12.184;2023-08-20T11:34:06;35.50;80.70
2893;DHT22;1456;51.840;12.184;2023-08-20T11:36:35;36.50;83.90
2893;DHT22;1456;51.840;12.184;2023-08-20T11:39:01;37.60;76.80
2893;DHT22;1456;51.840;12.184;2023-08-20T11:41:26;37.90;74.60
2893;DHT22;1456;51.840;12.184;2023-08-20T11:43:53;38.30;73.60
2893;DHT22;1456;51.840;12.184;2023-08-20T11:46:21;38.50;72.40
2893;DHT22;1456;51.840;12.184;2023-08-20T11:49:07;38.20;71.00
2893;DHT22;1456;51.840;12.184;2023-08-20T11:51:41;38.30;74.40
2893;DHT22;1456;51.840;12.184;2023-08-20T11:54:11;38.40;71.40
2893;DHT22;1456;51.840;12.184;2023-08-20T11:56:44;38.70;69.70
2893;DHT22;1456;51.840;12.184;2023-08-20T11:59:11;38.50;72.50
2893;DHT22;1456;51.840;12.184;2023-08-20T12:01:37;39.00;69.40
2893;DHT22;1456;51.840;12.184;2023-08-20T12:04:07;39.00;70.10
2893;DHT22;1456;51.840;12.184;2023-08-20T12:06:34;39.10;75.30
2893;DHT22;1456;51.840;12.184;2023-08-20T12:09:01;39.50;68.80
2893;DHT22;1456;51.840;12.184;2023-08-20T12:11:29;40.00;65.30
2893;DHT22;1456;51.840;12.184;2023-08-20T12:13:55;40.00;69.20
2893;DHT22;1456;51.840;12.184;2023-08-20T12:16:23;40.40;66.60
2893;DHT22;1456;51.840;12.184;2023-08-20T12:18:50;40.00;64.20
2893;DHT22;1456;51.840;12.184;2023-08-20T12:21:16;39.30;68.90
2893;DHT22;1456;51.840;12.184;2023-08-20T12:23:41;39.30;66.80
2893;DHT22;1456;51.840;12.184;2023-08-20T12:26:07;39.40;65.00
2893;DHT22;1456;51.840;12.184;2023-08-20T12:28:34;39.70;63.40
2893;DHT22;1456;51.840;12.184;2023-08-20T12:31:00;39.80;67.20
2893;DHT22;1456;51.840;12.184;2023-08-20T12:33:25;39.80;68.90
2893;DHT22;1456;51.840;12.184;2023-08-20T12:35:55;40.50;63.30
2893;DHT22;1456;51.840;12.184;2023-08-20T12:38:21;40.70;63.80
2893;DHT22;1456;51.840;12.184;2023-08-20T12:40:47;41.40;62.60
2893;DHT22;1456;51.840;12.184;2023-08-20T12:43:13;42.00;62.80
2893;DHT22;1456;51.840;12.184;2023-08-20T12:45:39;42.40;63.10
2893;DHT22;1456;51.840;12.184;2023-08-20T12:48:05;43.30;60.80
2893;DHT22;1456;51.840;12.184;2023-08-20T12:50:33;43.80;59.40
2893;DHT22;1456;51.840;12.184;2023-08-20T12:52:58;44.00;58.70
2893;DHT22;1456;51.840;12.184;2023-08-20T12:55:24;44.20;55.10
2893;DHT22;1456;51.840;12.184;2023-08-20T12:57:57;44.10;58.20
2893;DHT22;1456;51.840;12.184;2023-08-20T13:00:23;43.90;57.00
2893;DHT22;1456;51.840;12.184;2023-08-20T13:02:53;44.50;57.20
2893;DHT22;1456;51.840;12.184;2023-08-20T13:05:21;44.80;54.60
2893;DHT22;1456;51.840;12.184;2023-08-20T13:07:47;44.30;54.70
2893;DHT22;1456;51.840;12.184;2023-08-20T13:10:13;44.50;52.30
2893;DHT22;1456;51.840;12.184;2023-08-20T13:12:41;44.40;52.50
2893;DHT22;1456;51.840;12.184;2023-08-20T13:15:08;44.50;51.70
2893;DHT22;1456;51.840;12.184;2023-08-20T13:17:36;44.80;52.20
2893;DHT22;1456;51.840;12.184;2023-08-20T13:20:03;44.70;52.30
2893;DHT22;1456;51.840;12.184;2023-08-20T13:22:30;45.10;53.50
2893;DHT22;1456;51.840;12.184;2023-08-20T13:24:57;45.00;52.70
2893;DHT22;1456;51.840;12.184;2023-08-20T13:27:23;44.80;54.20
2893;DHT22;1456;51.840;12.184;2023-08-20T13:29:49;45.50;53.00
2893;DHT22;1456;51.840;12.184;2023-08-20T13:32:15;45.60;52.90
2893;DHT22;1456;51.840;12.184;2023-08-20T13:34:41;46.10;52.60
2893;DHT22;1456;51.840;12.184;2023-08-20T13:37:06;46.30;51.30
2893;DHT22;1456;51.840;12.184;2023-08-20T13:39:32;45.90;50.20
2893;DHT22;1456;51.840;12.184;2023-08-20T13:41:58;45.90;49.50
2893;DHT22;1456;51.840;12.184;2023-08-20T13:44:24;45.70;51.80
2893;DHT22;1456;51.840;12.184;2023-08-20T13:46:49;45.60;51.50
2893;DHT22;1456;51.840;12.184;2023-08-20T13:49:15;46.40;49.90
2893;DHT22;1456;51.840;12.184;2023-08-20T13:51:41;46.30;50.00
2893;DHT22;1456;51.840;12.184;2023-08-20T13:54:06;46.40;51.10
2893;DHT22;1456;51.840;12.184;2023-08-20T13:56:32;46.10;49.80
2893;DHT22;1456;51.840;12.184;2023-08-20T13:58:58;44.70;50.00
2893;DHT22;1456;51.840;12.184;2023-08-20T14:01:24;44.60;51.00
2893;DHT22;1456;51.840;12.184;2023-08-20T14:03:49;45.00;49.90
2893;DHT22;1456;51.840;12.184;2023-08-20T14:06:16;44.60;49.60
2893;DHT22;1456;51.840;12.184;2023-08-20T14:08:43;44.30;50.00
2893;DHT22;1456;51.840;12.184;2023-08-20T14:11:09;45.00;52.10
2893;DHT22;1456;51.840;12.184;2023-08-20T14:13:35;44.80;48.10
2893;DHT22;1456;51.840;12.184;2023-08-20T14:16:00;45.20;49.30
2893;DHT22;1456;51.840;12.184;2023-08-20T14:18:26;45.20;49.90
2893;DHT22;1456;51.840;12.184;2023-08-20T14:20:52;45.60;49.20
2893;DHT22;1456;51.840;12.184;2023-08-20T14:23:18;46.00;49.30
2893;DHT22;1456;51.840;12.184;2023-08-20T14:25:43;45.80;48.60
2893;DHT22;1456;51.840;12.184;2023-08-20T14:28:09;46.30;49.50
2893;DHT22;1456;51.840;12.184;2023-08-20T14:30:38;46.50;49.80
2893;DHT22;1456;51.840;12.184;2023-08-20T14:33:05;46.60;48.30
2893;DHT22;1456;51.840;12.184;2023-08-20T14:35:32;46.60;49.00
2893;DHT22;1456;51.840;12.184;2023-08-20T14:37:57;46.00;49.00
2893;DHT22;1456;51.840;12.184;2023-08-20T14:40:23;46.30;46.70
2893;DHT22;1456;51.840;12.184;2023-08-20T14:42:49;45.60;48.50
2893;DHT22;1456;51.840;12.184;2023-08-20T14:45:15;45.80;49.00
2893;DHT22;1456;51.840;12.184;2023-08-20T14:47:41;46.40;46.80
2893;DHT22;1456;51.840;12.184;2023-08-20T14:50:07;46.50;45.90
2893;DHT22;1456;51.840;12.184;2023-08-20T14:52:34;45.90;46.20
2893;DHT22;1456;51.840;12.184;2023-08-20T14:55:00;46.00;48.40
2893;DHT22;1456;51.840;12.184;2023-08-20T14:57:26;46.20;46.80
2893;DHT22;1456;51.840;12.184;2023-08-20T14:59:52;47.20;47.20
2893;DHT22;1456;51.840;12.184;2023-08-20T15:02:18;47.50;46.30
2893;DHT22;1456;51.840;12.184;2023-08-20T15:04:43;47.50;45.70
2893;DHT22;1456;51.840;12.184;2023-08-20T15:07:09;46.70;45.70
2893;DHT22;1456;51.840;12.184;2023-08-20T15:09:37;46.70;46.80
2893;DHT22;1456;51.840;12.184;2023-08-20T15:12:03;47.20;45.30
2893;DHT22;1456;51.840;12.184;2023-08-20T15:14:29;47.00;46.20
2893;DHT22;1456;51.840;12.184;2023-08-20T15:16:54;47.00;45.80
2893;DHT22;1456;51.840;12.184;2023-08-20T15:19:20;47.00;44.00
2893;DHT22;1456;51.840;12.184;2023-08-20T15:21:46;47.00;44.70
2893;DHT22;1456;51.840;12.184;2023-08-20T15:24:13;47.50;43.60
2893;DHT22;1456;51.840;12.184;2023-08-20T15:26:40;47.40;43.90
2893;DHT22;1456;51.840;12.184;2023-08-20T15:29:05;47.10;44.50
2893;DHT22;1456;51.840;12.184;2023-08-20T15:31:31;45.90;43.80
2893;DHT22;1456;51.840;12.184;2023-08-20T15:33:57;44.90;44.40
2893;DHT22;1456;51.840;12.184;2023-08-20T15:36:23;44.30;45.40
2893;DHT22;1456;51.840;12.184;2023-08-20T15:38:48;44.20;46.60
2893;DHT22;1456;51.840;12.184;2023-08-20T15:41:14;44.20;46.20
2893;DHT22;1456;51.840;12.184;2023-08-20T15:43:41;41.90;45.40
2893;DHT22;1456;51.840;12.184;2023-08-20T15:46:08;39.40;46.90
2893;DHT22;1456;51.840;12.184;2023-08-20T15:48:33;37.70;49.40
2893;DHT22;1456;51.840;12.184;2023-08-20T15:50:59;36.40;51.80
2893;DHT22;1456;51.840;12.184;2023-08-20T15:53:24;35.70;52.00
2893;DHT22;1456;51.840;12.184;2023-08-20T15:55:50;35.10;52.80
2893;DHT22;1456;51.840;12.184;2023-08-20T15:58:16;34.50;53.80